sensor_id;sensor_type;location;lat;lon;timestamp;pressure;altitude;pressure_sealevel;temperature;humidity
76352;BME280;65179;47.786;19.138;2023-12-29T00:00:25;100822.38;;;0.76;95.04
76352;BME280;65179;47.786;19.138;2023-12-29T00:02:51;100812.53;;;0.76;94.68
76352;BME280;65179;47.786;19.138;2023-12-29T00:05:16;100817.63;;;0.70;95.12
76352;BME280;65179;47.786;19.138;2023-12-29T00:07:42;100816.34;;;0.74;94.74
76352;BME280;65179;47.786;19.138;2023-12-29T00:10:07;100807.19;;;0.76;94.32
76352;BME280;65179;47.786;19.138;2023-12-29T00:12:33;100810.63;;;0.69;94.73
76352;BME280;65179;47.786;19.138;2023-12-29T00:14:59;100812.69;;;0.75;94.32
76352;BME280;65179;47.786;19.138;2023-12-29T00:17:24;100812.53;;;0.76;94.29
76352;BME280;65179;47.786;19.138;2023-12-29T00:19:49;100809.44;;;0.81;94.48
76352;BME280;65179;47.786;19.138;2023-12-29T00:22:15;100811.94;;;0.83;94.53
76352;BME280;65179;47.786;19.138;2023-12-29T00:24:40;100811.13;;;0.82;94.03
76352;BME280;65179;47.786;19.138;2023-12-29T00:27:06;100804.09;;;0.81;94.23
76352;BME280;65179;47.786;19.138;2023-12-29T00:29:31;100806.91;;;0.80;94.63
76352;BME280;65179;47.786;19.138;2023-12-29T00:31:59;100807.63;;;0.72;94.83
76352;BME280;65179;47.786;19.138;2023-12-29T00:34:28;100805.97;;;0.71;94.76
76352;BME280;65179;47.786;19.138;2023-12-29T00:36:56;100800.63;;;0.71;94.51
76352;BME280;65179;47.786;19.138;2023-12-29T00:39:21;100801.22;;;0.65;94.55
76352;BME280;65179;47.786;19.138;2023-12-29T00:41:54;100794.88;;;0.56;95.50
76352;BME280;65179;47.786;19.138;2023-12-29T00:44:20;100803.88;;;0.65;95.44
76352;BME280;65179;47.786;19.138;2023-12-29T00:46:45;100810.63;;;0.69;94.60
76352;BME280;65179;47.786;19.138;2023-12-29T00:49:12;100814.09;;;0.79;94.75
76352;BME280;65179;47.786;19.138;2023-12-29T00:51:40;100806.22;;;0.77;94.99
76352;BME280;65179;47.786;19.138;2023-12-29T00:54:08;100795.91;;;0.83;94.93
76352;BME280;65179;47.786;19.138;2023-12-29T00:56:33;100796.31;;;0.88;94.87
76352;BME280;65179;47.786;19.138;2023-12-29T00:58:59;100794.19;;;0.91;94.78
76352;BME280;65179;47.786;19.138;2023-12-29T01:01:24;100796.16;;;0.89;95.37
76352;BME280;65179;47.786;19.138;2023-12-29T01:03:50;100792.91;;;0.95;95.63
76352;BME280;65179;47.786;19.138;2023-12-29T01:06:19;100798.38;;;0.94;95.42
76352;BME280;65179;47.786;19.138;2023-12-29T01:08:44;100791.31;;;1.02;96.70
76352;BME280;65179;47.786;19.138;2023-12-29T01:11:10;100785.87;;;0.94;95.78
76352;BME280;65179;47.786;19.138;2023-12-29T01:13:35;100788.53;;;0.94;95.81
76352;BME280;65179;47.786;19.138;2023-12-29T01:16:01;100783.47;;;0.91;96.17
76352;BME280;65179;47.786;19.138;2023-12-29T01:18:26;100785.47;;;0.89;96.60
76352;BME280;65179;47.786;19.138;2023-12-29T01:20:51;100796.03;;;0.91;97.01
76352;BME280;65179;47.786;19.138;2023-12-29T01:23:17;100782.09;;;0.87;96.91
76352;BME280;65179;47.786;19.138;2023-12-29T01:25:43;100782.41;;;0.84;97.70
76352;BME280;65179;47.786;19.138;2023-12-29T01:28:08;100785.19;;;0.92;98.70
76352;BME280;65179;47.786;19.138;2023-12-29T01:30:34;100781.22;;;0.96;98.56
76352;BME280;65179;47.786;19.138;2023-12-29T01:32:59;100775.47;;;0.91;99.13
76352;BME280;65179;47.786;19.138;2023-12-29T01:35:25;100770.84;;;0.93;99.46
76352;BME280;65179;47.786;19.138;2023-12-29T01:37:50;100773.09;;;0.88;100.00
76352;BME280;65179;47.786;19.138;2023-12-29T01:40:15;100767.44;;;0.91;99.87
76352;BME280;65179;47.786;19.138;2023-12-29T01:42:42;100766.19;;;0.95;99.40
76352;BME280;65179;47.786;19.138;2023-12-29T01:45:24;100775.25;;;1.02;99.08
76352;BME280;65179;47.786;19.138;2023-12-29T01:47:51;100771.28;;;1.06;99.16
76352;BME280;65179;47.786;19.138;2023-12-29T01:50:18;100769.34;;;1.08;99.75
76352;BME280;65179;47.786;19.138;2023-12-29T01:52:45;100763.66;;;1.11;99.13
76352;BME280;65179;47.786;19.138;2023-12-29T01:55:15;100762.28;;;1.07;99.62
76352;BME280;65179;47.786;19.138;2023-12-29T01:57:42;100762.28;;;1.07;99.32
76352;BME280;65179;47.786;19.138;2023-12-29T02:00:08;100766.41;;;1.02;99.61
76352;BME280;65179;47.786;19.138;2023-12-29T02:02:35;100773.59;;;1.01;100.00
76352;BME280;65179;47.786;19.138;2023-12-29T02:05:00;100775.56;;;0.99;100.00
76352;BME280;65179;47.786;19.138;2023-12-29T02:07:27;100775.22;;;1.12;100.00
76352;BME280;65179;47.786;19.138;2023-12-29T02:09:56;100779.56;;;1.13;100.00
76352;BME280;65179;47.786;19.138;2023-12-29T02:12:23;100771.25;;;1.16;100.00
76352;BME280;65179;47.786;19.138;2023-12-29T02:14:48;100759.41;;;1.18;100.00
76352;BME280;65179;47.786;19.138;2023-12-29T02:20:20;100756.81;;;1.26;100.00
76352;BME280;65179;47.786;19.138;2023-12-29T02:22:46;100756.41;;;1.21;100.00
76352;BME280;65179;47.786;19.138;2023-12-29T02:25:11;100745.59;;;1.23;100.00
76352;BME280;65179;47.786;19.138;2023-12-29T02:27:46;100746.31;;;1.15;100.00
76352;BME280;65179;47.786;19.138;2023-12-29T02:30:37;100745.03;;;1.19;100.00
76352;BME280;65179;47.786;19.138;2023-12-29T02:33:10;100742.22;;;1.21;100.00
76352;BME280;65179;47.786;19.138;2023-12-29T02:35:39;100730.97;;;1.17;100.00
76352;BME280;65179;47.786;19.138;2023-12-29T02:38:12;100729.47;;;1.15;100.00
76352;BME280;65179;47.786;19.138;2023-12-29T02:40:38;100724.25;;;1.13;100.00
76352;BME280;65179;47.786;19.138;2023-12-29T02:43:04;100733.56;;;1.09;100.00
76352;BME280;65179;47.786;19.138;2023-12-29T02:45:29;100723.88;;;1.08;100.00
76352;BME280;65179;47.786;19.138;2023-12-29T02:47:55;100726.56;;;1.08;100.00
76352;BME280;65179;47.786;19.138;2023-12-29T02:50:20;100727.53;;;1.07;100.00
76352;BME280;65179;47.786;19.138;2023-12-29T02:52:46;100726.22;;;1.11;100.00
76352;BME280;65179;47.786;19.138;2023-12-29T02:55:11;100732.25;;;1.13;100.00
76352;BME280;65179;47.786;19.138;2023-12-29T02:57:37;100722.00;;;1.09;100.00
76352;BME280;65179;47.786;19.138;2023-12-29T03:00:04;100718.87;;;1.13;100.00
76352;BME280;65179;47.786;19.138;2023-12-29T03:02:30;100712.16;;;1.09;100.00
76352;BME280;65179;47.786;19.138;2023-12-29T03:04:55;100720.34;;;1.08;100.00
76352;BME280;65179;47.786;19.138;2023-12-29T03:07:21;100715.63;;;1.02;100.00
76352;BME280;65179;47.786;19.138;2023-12-29T03:09:46;100713.72;;;0.85;100.00
76352;BME280;65179;47.786;19.138;2023-12-29T03:12:12;100724.91;;;0.98;100.00
76352;BME280;65179;47.786;19.138;2023-12-29T03:14:38;100724.03;;;0.80;100.00
76352;BME280;65179;47.786;19.138;2023-12-29T03:17:03;100716.38;;;0.67;100.00
76352;BME280;65179;47.786;19.138;2023-12-29T03:19:29;100729.25;;;0.81;100.00
76352;BME280;65179;47.786;19.138;2023-12-29T03:21:54;100719.78;;;0.87;100.00
76352;BME280;65179;47.786;19.138;2023-12-29T03:24:20;100735.69;;;0.88;100.00
76352;BME280;65179;47.786;19.138;2023-12-29T03:26:45;100715.94;;;0.89;100.00
76352;BME280;65179;47.786;19.138;2023-12-29T03:29:11;100720.41;;;0.98;100.00
76352;BME280;65179;47.786;19.138;2023-12-29T03:31:37;100715.37;;;0.95;100.00
76352;BME280;65179;47.786;19.138;2023-12-29T03:34:02;100706.34;;;0.96;100.00
76352;BME280;65179;47.786;19.138;2023-12-29T03:36:28;100716.75;;;0.99;100.00
76352;BME280;65179;47.786;19.138;2023-12-29T03:38:53;100717.72;;;0.98;100.00
76352;BME280;65179;47.786;19.138;2023-12-29T03:41:21;100724.09;;;0.97;100.00
76352;BME280;65179;47.786;19.138;2023-12-29T03:43:46;100728.44;;;0.98;100.00
76352;BME280;65179;47.786;19.138;2023-12-29T03:46:19;100730.56;;;0.95;100.00
76352;BME280;65179;47.786;19.138;2023-12-29T03:48:45;100725.22;;;0.95;100.00
76352;BME280;65179;47.786;19.138;2023-12-29T03:51:11;100733.41;;;0.93;100.00
76352;BME280;65179;47.786;19.138;2023-12-29T03:53:36;100729.63;;;0.86;100.00
76352;BME280;65179;47.786;19.138;2023-12-29T03:56:09;100716.28;;;0.86;100.00
76352;BME280;65179;47.786;19.138;2023-12-29T03:58:37;100712.31;;;0.90;100.00
76352;BME280;65179;47.786;19.138;2023-12-29T04:01:03;100724.22;;;0.96;100.00
76352;BME280;65179;47.786;19.138;2023-12-29T04:03:29;100719.72;;;0.96;100.00
76352;BME280;65179;47.786;19.138;2023-12-29T04:05:54;100720.72;;;0.95;100.00
76352;BME280;65179;47.786;19.138;2023-12-29T04:08:20;100722.47;;;1.04;100.00
76352;BME280;65179;47.786;19.138;2023-12-29T04:10:45;100719.22;;;1.10;100.00
76352;BME280;65179;47.786;19.138;2023-12-29T04:13:10;100712.63;;;1.05;100.00
76352;BME280;65179;47.786;19.138;2023-12-29T04:15:36;100713.06;;;1.00;100.00
76352;BME280;65179;47.786;19.138;2023-12-29T04:18:01;100706.28;;;1.06;100.00
76352;BME280;65179;47.786;19.138;2023-12-29T04:20:27;100707.03;;;0.98;100.00
76352;BME280;65179;47.786;19.138;2023-12-29T04:22:52;100712.31;;;0.90;100.00
76352;BME280;65179;47.786;19.138;2023-12-29T04:25:18;100707.84;;;0.81;100.00
76352;BME280;65179;47.786;19.138;2023-12-29T04:27:43;100704.78;;;0.76;100.00
76352;BME280;65179;47.786;19.138;2023-12-29T04:30:09;100716.56;;;0.83;100.00
76352;BME280;65179;47.786;19.138;2023-12-29T04:32:35;100714.97;;;0.90;100.00
76352;BME280;65179;47.786;19.138;2023-12-29T04:35:00;100715.50;;;0.94;100.00
76352;BME280;65179;47.786;19.138;2023-12-29T04:37:26;100715.06;;;0.98;100.00
76352;BME280;65179;47.786;19.138;2023-12-29T04:39:51;100717.12;;;1.04;100.00
76352;BME280;65179;47.786;19.138;2023-12-29T04:42:16;100713.47;;;1.05;100.00
76352;BME280;65179;47.786;19.138;2023-12-29T04:44:43;100717.81;;;1.06;100.00
76352;BME280;65179;47.786;19.138;2023-12-29T04:47:08;100722.91;;;1.00;100.00
76352;BME280;65179;47.786;19.138;2023-12-29T04:49:34;100728.44;;;0.98;100.00
76352;BME280;65179;47.786;19.138;2023-12-29T04:51:59;100725.22;;;0.95;100.00
76352;BME280;65179;47.786;19.138;2023-12-29T04:54:25;100719.44;;;0.99;100.00
76352;BME280;65179;47.786;19.138;2023-12-29T04:56:50;100727.81;;;1.04;100.00
76352;BME280;65179;47.786;19.138;2023-12-29T04:59:16;100751.31;;;1.10;100.00
76352;BME280;65179;47.786;19.138;2023-12-29T05:01:41;100746.94;;;1.09;100.00
76352;BME280;65179;47.786;19.138;2023-12-29T05:04:07;100743.88;;;1.04;100.00
76352;BME280;65179;47.786;19.138;2023-12-29T05:06:32;100746.25;;;1.07;100.00
76352;BME280;65179;47.786;19.138;2023-12-29T05:08:57;100747.94;;;1.08;100.00
76352;BME280;65179;47.786;19.138;2023-12-29T05:11:23;100747.94;;;1.08;100.00
76352;BME280;65179;47.786;19.138;2023-12-29T05:13:49;100742.59;;;1.08;100.00
76352;BME280;65179;47.786;19.138;2023-12-29T05:16:14;100734.94;;;1.13;100.00
76352;BME280;65179;47.786;19.138;2023-12-29T05:18:39;100740.00;;;1.16;100.00
76352;BME280;65179;47.786;19.138;2023-12-29T05:21:05;100742.84;;;1.15;100.00
76352;BME280;65179;47.786;19.138;2023-12-29T05:23:30;100743.28;;;1.10;100.00
76352;BME280;65179;47.786;19.138;2023-12-29T05:25:56;100741.31;;;1.12;100.00
76352;BME280;65179;47.786;19.138;2023-12-29T05:28:21;100744.50;;;1.16;100.00
76352;BME280;65179;47.786;19.138;2023-12-29T05:30:47;100733.50;;;1.19;100.00
76352;BME280;65179;47.786;19.138;2023-12-29T05:33:12;100743.66;;;1.15;100.00
76352;BME280;65179;47.786;19.138;2023-12-29T05:35:37;100749.31;;;1.12;100.00
76352;BME280;65179;47.786;19.138;2023-12-29T05:38:03;100739.75;;;1.10;100.00
76352;BME280;65179;47.786;19.138;2023-12-29T05:40:28;100745.34;;;1.16;100.00
76352;BME280;65179;47.786;19.138;2023-12-29T05:42:54;100754.34;;;1.15;100.00
76352;BME280;65179;47.786;19.138;2023-12-29T05:45:19;100740.28;;;1.13;100.00
76352;BME280;65179;47.786;19.138;2023-12-29T05:47:45;100747.56;;;1.21;100.00
76352;BME280;65179;47.786;19.138;2023-12-29T05:50:11;100759.16;;;1.12;100.00
76352;BME280;65179;47.786;19.138;2023-12-29T05:52:36;100756.34;;;1.13;100.00
76352;BME280;65179;47.786;19.138;2023-12-29T05:55:02;100757.72;;;1.17;100.00
76352;BME280;65179;47.786;19.138;2023-12-29T05:57:28;100749.94;;;1.24;100.00
76352;BME280;65179;47.786;19.138;2023-12-29T05:59:53;100745.03;;;1.19;100.00
76352;BME280;65179;47.786;19.138;2023-12-29T06:02:19;100742.22;;;1.21;100.00
76352;BME280;65179;47.786;19.138;2023-12-29T06:04:44;100729.13;;;1.18;100.00
76352;BME280;65179;47.786;19.138;2023-12-29T06:07:09;100726.00;;;1.22;100.00
76352;BME280;65179;47.786;19.138;2023-12-29T06:09:36;100731.97;;;1.16;100.00
76352;BME280;65179;47.786;19.138;2023-12-29T06:12:01;100736.88;;;1.21;100.00
76352;BME280;65179;47.786;19.138;2023-12-29T06:14:27;100736.88;;;1.21;100.00
76352;BME280;65179;47.786;19.138;2023-12-29T06:16:52;100729.66;;;1.21;100.00
76352;BME280;65179;47.786;19.138;2023-12-29T06:19:18;100727.16;;;1.20;100.00
76352;BME280;65179;47.786;19.138;2023-12-29T06:21:43;100730.97;;;1.17;100.00
76352;BME280;65179;47.786;19.138;2023-12-29T06:24:10;100725.94;;;1.14;100.00
76352;BME280;65179;47.786;19.138;2023-12-29T06:26:36;100735.78;;;1.14;100.00
76352;BME280;65179;47.786;19.138;2023-12-29T06:29:07;100744.50;;;1.16;100.00
76352;BME280;65179;47.786;19.138;2023-12-29T06:31:33;100747.34;;;1.14;100.00
76352;BME280;65179;47.786;19.138;2023-12-29T06:33:58;100740.59;;;1.10;100.00
76352;BME280;65179;47.786;19.138;2023-12-29T06:36:25;100739.91;;;1.08;100.00
76352;BME280;65179;47.786;19.138;2023-12-29T06:38:50;100751.00;;;1.13;100.00
76352;BME280;65179;47.786;19.138;2023-12-29T06:41:17;100745.63;;;1.13;100.00
76352;BME280;65179;47.786;19.138;2023-12-29T06:43:42;100755.34;;;1.14;100.00
76352;BME280;65179;47.786;19.138;2023-12-29T06:46:08;100768.72;;;1.14;100.00
76352;BME280;65179;47.786;19.138;2023-12-29T06:48:34;100765.38;;;1.12;100.00
76352;BME280;65179;47.786;19.138;2023-12-29T06:50:59;100771.41;;;1.14;100.00
76352;BME280;65179;47.786;19.138;2023-12-29T06:53:24;100768.41;;;1.17;100.00
76352;BME280;65179;47.786;19.138;2023-12-29T06:55:50;100760.38;;;1.17;100.00
76352;BME280;65179;47.786;19.138;2023-12-29T06:58:16;100754.66;;;1.12;100.00
76352;BME280;65179;47.786;19.138;2023-12-29T07:00:41;100747.34;;;1.14;100.00
76352;BME280;65179;47.786;19.138;2023-12-29T07:03:07;100740.59;;;1.10;100.00
76352;BME280;65179;47.786;19.138;2023-12-29T07:05:32;100741.31;;;1.12;100.00
76352;BME280;65179;47.786;19.138;2023-12-29T07:07:58;100731.53;;;1.21;100.00
76352;BME280;65179;47.786;19.138;2023-12-29T07:10:23;100736.56;;;1.24;100.00
76352;BME280;65179;47.786;19.138;2023-12-29T07:12:48;100738.09;;;1.26;100.00
76352;BME280;65179;47.786;19.138;2023-12-29T07:15:14;100756.34;;;1.31;100.00
76352;BME280;65179;47.786;19.138;2023-12-29T07:17:39;100761.03;;;1.29;100.00
76352;BME280;65179;47.786;19.138;2023-12-29T07:20:06;100749.47;;;1.28;100.00
76352;BME280;65179;47.786;19.138;2023-12-29T07:22:34;100755.06;;;1.35;100.00
76352;BME280;65179;47.786;19.138;2023-12-29T07:25:00;100756.53;;;1.29;100.00
76352;BME280;65179;47.786;19.138;2023-12-29T07:27:25;100761.72;;;1.31;100.00
76352;BME280;65179;47.786;19.138;2023-12-29T07:29:51;100754.12;;;1.26;100.00
76352;BME280;65179;47.786;19.138;2023-12-29T07:32:16;100757.50;;;1.28;100.00
76352;BME280;65179;47.786;19.138;2023-12-29T07:34:42;100755.16;;;1.25;100.00
76352;BME280;65179;47.786;19.138;2023-12-29T07:37:09;100755.16;;;1.25;100.00
76352;BME280;65179;47.786;19.138;2023-12-29T07:39:36;100752.31;;;1.27;100.00
76352;BME280;65179;47.786;19.138;2023-12-29T07:42:01;100756.44;;;1.39;100.00
76352;BME280;65179;47.786;19.138;2023-12-29T07:44:27;100758.66;;;1.43;100.00
76352;BME280;65179;47.786;19.138;2023-12-29T07:46:52;100757.34;;;1.47;100.00
76352;BME280;65179;47.786;19.138;2023-12-29T07:49:17;100756.53;;;1.47;100.00
76352;BME280;65179;47.786;19.138;2023-12-29T07:51:46;100763.38;;;1.49;100.00
76352;BME280;65179;47.786;19.138;2023-12-29T07:54:12;100761.66;;;1.58;100.00
76352;BME280;65179;47.786;19.138;2023-12-29T07:56:37;100761.44;;;1.51;100.00
76352;BME280;65179;47.786;19.138;2023-12-29T07:59:03;100767.59;;;1.52;100.00
76352;BME280;65179;47.786;19.138;2023-12-29T08:01:29;100774.41;;;1.46;100.00
76352;BME280;65179;47.786;19.138;2023-12-29T08:03:57;100766.16;;;1.58;100.00
76352;BME280;65179;47.786;19.138;2023-12-29T08:06:25;100767.53;;;1.62;100.00
76352;BME280;65179;47.786;19.138;2023-12-29T08:08:50;100772.44;;;1.48;100.00
76352;BME280;65179;47.786;19.138;2023-12-29T08:11:16;100770.84;;;1.56;100.00
76352;BME280;65179;47.786;19.138;2023-12-29T08:13:47;100762.47;;;1.59;100.00
76352;BME280;65179;47.786;19.138;2023-12-29T08:16:12;100755.00;;;1.44;100.00
76352;BME280;65179;47.786;19.138;2023-12-29T08:18:38;100760.03;;;1.47;100.00
76352;BME280;65179;47.786;19.138;2023-12-29T08:21:03;100763.03;;;1.44;100.00
76352;BME280;65179;47.786;19.138;2023-12-29T08:23:29;100759.28;;;1.37;100.00
76352;BME280;65179;47.786;19.138;2023-12-29T08:25:56;100760.47;;;1.43;100.00
76352;BME280;65179;47.786;19.138;2023-12-29T08:28:23;100769.97;;;1.37;100.00
76352;BME280;65179;47.786;19.138;2023-12-29T08:30:48;100769.22;;;1.45;100.00
76352;BME280;65179;47.786;19.138;2023-12-29T08:33:13;100770.44;;;1.50;100.00
76352;BME280;65179;47.786;19.138;2023-12-29T08:35:40;100781.81;;;1.52;100.00
76352;BME280;65179;47.786;19.138;2023-12-29T08:38:06;100780.47;;;1.48;100.00
76352;BME280;65179;47.786;19.138;2023-12-29T08:40:31;100784.41;;;1.27;100.00
76352;BME280;65179;47.786;19.138;2023-12-29T08:42:57;100794.81;;;1.30;100.00
76352;BME280;65179;47.786;19.138;2023-12-29T08:45:22;100802.13;;;1.28;100.00
76352;BME280;65179;47.786;19.138;2023-12-29T08:47:51;100798.72;;;1.35;100.00
76352;BME280;65179;47.786;19.138;2023-12-29T08:50:16;100809.87;;;1.48;100.00
76352;BME280;65179;47.786;19.138;2023-12-29T08:52:42;100810.37;;;1.62;100.00
76352;BME280;65179;47.786;19.138;2023-12-29T08:55:08;100803.41;;;1.69;100.00
76352;BME280;65179;47.786;19.138;2023-12-29T08:57:33;100792.00;;;1.67;100.00
76352;BME280;65179;47.786;19.138;2023-12-29T08:59:59;100788.78;;;1.81;100.00
76352;BME280;65179;47.786;19.138;2023-12-29T09:02:40;100780.06;;;1.79;100.00
76352;BME280;65179;47.786;19.138;2023-12-29T09:05:06;100775.16;;;1.57;100.00
76352;BME280;65179;47.786;19.138;2023-12-29T09:07:33;100768.59;;;1.69;100.00
76352;BME280;65179;47.786;19.138;2023-12-29T09:09:58;100785.03;;;1.74;100.00
76352;BME280;65179;47.786;19.138;2023-12-29T09:12:24;100802.41;;;1.70;100.00
76352;BME280;65179;47.786;19.138;2023-12-29T09:14:49;100801.78;;;1.76;100.00
76352;BME280;65179;47.786;19.138;2023-12-29T09:17:15;100788.78;;;1.81;100.00
76352;BME280;65179;47.786;19.138;2023-12-29T09:19:40;100796.06;;;1.88;100.00
76352;BME280;65179;47.786;19.138;2023-12-29T09:22:05;100793.37;;;1.71;100.00
76352;BME280;65179;47.786;19.138;2023-12-29T09:24:34;100791.00;;;1.85;100.00
76352;BME280;65179;47.786;19.138;2023-12-29T09:27:08;100794.44;;;1.78;100.00
76352;BME280;65179;47.786;19.138;2023-12-29T09:29:34;100799.25;;;1.74;100.00
76352;BME280;65179;47.786;19.138;2023-12-29T09:31:59;100793.00;;;1.83;100.00
76352;BME280;65179;47.786;19.138;2023-12-29T09:34:30;100790.78;;;1.79;100.00
76352;BME280;65179;47.786;19.138;2023-12-29T09:36:55;100792.16;;;1.83;100.00
76352;BME280;65179;47.786;19.138;2023-12-29T09:39:21;100788.03;;;1.71;100.00
76352;BME280;65179;47.786;19.138;2023-12-29T09:41:49;100781.38;;;1.57;100.00
76352;BME280;65179;47.786;19.138;2023-12-29T09:44:19;100779.44;;;1.67;100.00
76352;BME280;65179;47.786;19.138;2023-12-29T09:46:55;100779.78;;;1.82;100.00
76352;BME280;65179;47.786;19.138;2023-12-29T09:49:38;100774.78;;;1.87;100.00
76352;BME280;65179;47.786;19.138;2023-12-29T09:52:13;100780.09;;;2.04;100.00
76352;BME280;65179;47.786;19.138;2023-12-29T09:54:41;100781.69;;;2.15;100.00
76352;BME280;65179;47.786;19.138;2023-12-29T09:57:08;100776.91;;;2.26;100.00
76352;BME280;65179;47.786;19.138;2023-12-29T09:59:45;100764.38;;;2.27;100.00
76352;BME280;65179;47.786;19.138;2023-12-29T10:02:16;100770.53;;;2.27;100.00
76352;BME280;65179;47.786;19.138;2023-12-29T10:04:42;100779.97;;;2.32;100.00
76352;BME280;65179;47.786;19.138;2023-12-29T10:07:08;100765.25;;;2.36;100.00
76352;BME280;65179;47.786;19.138;2023-12-29T10:09:37;100771.81;;;2.15;100.00
76352;BME280;65179;47.786;19.138;2023-12-29T10:12:03;100759.81;;;2.02;100.00
76352;BME280;65179;47.786;19.138;2023-12-29T10:14:47;100756.59;;;2.16;100.00
76352;BME280;65179;47.786;19.138;2023-12-29T10:17:23;100750.00;;;2.36;100.00
76352;BME280;65179;47.786;19.138;2023-12-29T10:23:10;100756.28;;;2.45;100.00
76352;BME280;65179;47.786;19.138;2023-12-29T10:25:38;100751.31;;;2.32;100.00
76352;BME280;65179;47.786;19.138;2023-12-29T10:28:05;100740.12;;;2.37;100.00
76352;BME280;65179;47.786;19.138;2023-12-29T10:30:31;100743.84;;;2.44;100.00
76352;BME280;65179;47.786;19.138;2023-12-29T10:32:57;100741.22;;;2.52;100.00
76352;BME280;65179;47.786;19.138;2023-12-29T10:35:23;100738.44;;;2.61;100.00
76352;BME280;65179;47.786;19.138;2023-12-29T10:37:49;100732.59;;;2.66;100.00
76352;BME280;65179;47.786;19.138;2023-12-29T10:40:23;100734.19;;;2.51;100.00
76352;BME280;65179;47.786;19.138;2023-12-29T10:42:55;100734.69;;;2.54;100.00
76352;BME280;65179;47.786;19.138;2023-12-29T10:45:22;100740.66;;;2.40;100.00
76352;BME280;65179;47.786;19.138;2023-12-29T10:47:50;100738.59;;;2.34;100.00
76352;BME280;65179;47.786;19.138;2023-12-29T10:50:18;100723.91;;;2.38;100.00
76352;BME280;65179;47.786;19.138;2023-12-29T10:52:43;100720.44;;;2.20;100.00
76352;BME280;65179;47.786;19.138;2023-12-29T10:55:10;100723.81;;;2.22;100.00
76352;BME280;65179;47.786;19.138;2023-12-29T10:57:40;100711.69;;;2.44;100.00
76352;BME280;65179;47.786;19.138;2023-12-29T11:00:09;100712.66;;;2.35;100.00
76352;BME280;65179;47.786;19.138;2023-12-29T11:02:37;100708.50;;;2.40;100.00
76352;BME280;65179;47.786;19.138;2023-12-29T11:05:07;100711.72;;;2.18;100.00
76352;BME280;65179;47.786;19.138;2023-12-29T11:07:38;100705.47;;;2.35;100.00
76352;BME280;65179;47.786;19.138;2023-12-29T11:10:05;100706.97;;;2.38;100.00
76352;BME280;65179;47.786;19.138;2023-12-29T11:12:33;100706.84;;;2.47;100.00
76352;BME280;65179;47.786;19.138;2023-12-29T11:15:01;100700.88;;;2.53;100.00
76352;BME280;65179;47.786;19.138;2023-12-29T11:17:29;100696.75;;;2.33;100.00
76352;BME280;65179;47.786;19.138;2023-12-29T11:19:55;100682.28;;;2.26;100.00
76352;BME280;65179;47.786;19.138;2023-12-29T11:22:23;100690.38;;;2.34;100.00
76352;BME280;65179;47.786;19.138;2023-12-29T11:24:49;100692.56;;;2.39;100.00
76352;BME280;65179;47.786;19.138;2023-12-29T11:27:16;100683.81;;;2.28;100.00
76352;BME280;65179;47.786;19.138;2023-12-29T11:29:42;100685.97;;;2.59;100.00
76352;BME280;65179;47.786;19.138;2023-12-29T11:32:15;100676.47;;;2.72;100.00
76352;BME280;65179;47.786;19.138;2023-12-29T11:34:46;100671.09;;;2.72;100.00
76352;BME280;65179;47.786;19.138;2023-12-29T11:40:20;100665.38;;;2.67;100.00
76352;BME280;65179;47.786;19.138;2023-12-29T11:42:52;100658.31;;;2.58;100.00
76352;BME280;65179;47.786;19.138;2023-12-29T11:45:29;100670.25;;;2.30;100.00
76352;BME280;65179;47.786;19.138;2023-12-29T11:47:57;100659.22;;;2.33;100.00
76352;BME280;65179;47.786;19.138;2023-12-29T11:50:36;100665.38;;;2.25;100.00
76352;BME280;65179;47.786;19.138;2023-12-29T11:53:08;100658.47;;;2.49;100.00
76352;BME280;65179;47.786;19.138;2023-12-29T11:55:36;100644.69;;;2.44;100.00
76352;BME280;65179;47.786;19.138;2023-12-29T12:00:47;100643.84;;;2.43;100.00
76352;BME280;65179;47.786;19.138;2023-12-29T12:03:16;100641.81;;;2.37;100.00
76352;BME280;65179;47.786;19.138;2023-12-29T12:05:51;100635.38;;;2.64;100.00
76352;BME280;65179;47.786;19.138;2023-12-29T12:08:33;100641.44;;;2.66;100.00
76352;BME280;65179;47.786;19.138;2023-12-29T12:14:08;100637.53;;;2.52;100.00
76352;BME280;65179;47.786;19.138;2023-12-29T12:19:12;100639.22;;;2.53;100.00
76352;BME280;65179;47.786;19.138;2023-12-29T12:21:38;100640.37;;;2.59;100.00
76352;BME280;65179;47.786;19.138;2023-12-29T12:24:04;100638.19;;;2.54;100.00
76352;BME280;65179;47.786;19.138;2023-12-29T12:26:33;100637.22;;;2.63;100.00
76352;BME280;65179;47.786;19.138;2023-12-29T12:28:59;100632.72;;;2.64;100.00
76352;BME280;65179;47.786;19.138;2023-12-29T12:31:25;100634.25;;;2.74;100.00
76352;BME280;65179;47.786;19.138;2023-12-29T12:33:58;100628.03;;;2.82;100.00
76352;BME280;65179;47.786;19.138;2023-12-29T12:36:25;100629.56;;;2.84;100.00
76352;BME280;65179;47.786;19.138;2023-12-29T12:38:53;100636.09;;;2.82;100.00
76352;BME280;65179;47.786;19.138;2023-12-29T12:41:29;100629.91;;;2.89;100.00
76352;BME280;65179;47.786;19.138;2023-12-29T12:46:25;100618.69;;;3.10;100.00
76352;BME280;65179;47.786;19.138;2023-12-29T12:48:51;100618.22;;;3.23;100.00
76352;BME280;65179;47.786;19.138;2023-12-29T12:51:19;100603.59;;;3.25;100.00
76352;BME280;65179;47.786;19.138;2023-12-29T12:53:44;100596.41;;;3.26;100.00
76352;BME280;65179;47.786;19.138;2023-12-29T12:56:12;100609.13;;;3.32;100.00
76352;BME280;65179;47.786;19.138;2023-12-29T12:58:38;100615.00;;;3.27;100.00